Ana Sayfa
METAR-TAF:

METAR-TAF

Havaalanları :

Eskişehir Anadolu Havalimanı

Eskişehir, Türkiye

Enlem: 39-48-36N, Boylam: 30-31-10E, yükseklik: 789 m

Güncel hava durumu gözlemi

Rapor saat 06:50 UTC de 1 saat ve 12 dakika önce yapıldı.
Rüzgar doğudan 5 kt, doğu/kuzeydoğu ve güney/güneydoğu arasında değişken
Sıcaklık 9°C
Nem 87%
Basınç 1018 hPa
Görüş mesafesi: 6000 m
4000 ft yükseklikte parçalı bulutlu
10000 ft yükseklikte parçalı çok bulutlu

METAR: LTBY 210650Z 10005KT 070V150 6000 SCT040 BKN100 09/07 Q1018

Saat: 11:02 (08:02 UTC)

Tahmin

Rapor saat 04:40 UTC de 3 saat ve 22 dakika önce yapıldı.
Ayın 21'si saat 06 UTC'den ayın 21'si saat 15 UTC'ye kadar geçerli Tahmin
Rüzgar değişken yönden 2 kt
Görüş mesafesi 10 km veya daha fazla
4000 ft yükseklikte parçalı bulutlu
10000 ft yükseklikte parçalı çok bulutlu
Geçici
ayın 21'si saat 11 UTC'den ayın 21'si saat 15 UTC'ye kadar
hafif yağmur

TAF: LTBY 210440Z 2106/2115 VRB02KT 9999 SCT040 BKN100 TEMPO 2111/2115 -RA

4.000'den fazla havaalanı için hava durumu gözlemleri ve tahminleri (METAR ve TAF raporları).

Kullanılabilir istasyonlar harita üzerinde sarı ve kırmızı noktalarla gösterilir.

İstasyonun adını görmek için fareyi noktanın üzerinde gezdirin.

Sonrasında hava gözlem ve tahminlerini görmek için tıklayın.

Haritayı değiştirmek için: yaklaştırmak için siyah artı işaretli yeşil düğmeye ve uzaklaştırmak için de eksi işaretli düğmeye hızla tıklayın; bitişik haritalar için yeşil okları kullanın.


METAR-TAF: